Terminal Aerodrome Forecast
Issued by NWS

Home | Current Version | Previous Version | Text Only | Print | Product List | Glossary On
Versions: 1 2 3 4 5 6 7 8 9 10 11 12 13
438
FTUS42 TJSJ 291748
TAFJBQ
TAF
TJBQ 291748Z 2918/3018 08012G20KT P6SM -SHRA VCTS SCT020CB BKN060
      TEMPO 2918/2921 4SM TSRA BKN020CB OVC050
     FM292300 09011KT P6SM FEW025 SCT060
     FM301300 08015G22KT P6SM VCSH SCT026 SCT040 BKN060=

USA.gov is the U.S. government's official web portal to all federal, state and local government web resources and services.